Latest Weather Observations for Coldstream

IDV60901

Issued at 9:01 pm EDT Saturday 31 January 2015 (issued every 10 minutes, with the page automatically refreshed every 10 minutes)

About weather observations | Map of Melbourne area stations | Latest observations for Melbourne area | Other Formats
Station Details ID: 086383 Name: COLDSTREAM Lat: -37.72 Lon: 145.41 Height: 83.0 m
Data from the previous 72 hours. | See also: Recent months at Coldstream
Date/Time
EDT
Tmp

°C
App
Tmp
°C
Dew
Point
°C
Rel
Hum
%
Delta-T

°C
Wind Press
QNH
hPa
Press
MSL
hPa
Rain
since
9 am
mm
Dir
 
Spd
km/h
Gust
km/h
Spd
kts
Gust
kts
31/08:30pm 16.4 14.1 11.8 74 2.5 SW 15 22 8 12 1012.6 1012.4 0.0
31/08:00pm 17.0 15.1 11.7 71 2.9 SW 13 19 7 10 1012.3 1012.1 0.0
31/07:30pm 17.5 14.7 11.3 67 3.4 SW 17 28 9 15 1012.1 1011.9 0.0
31/07:00pm 17.9 15.3 10.8 63 3.8 SW 15 22 8 12 1012.0 1011.8 0.0
31/06:30pm 18.0 15.5 10.9 63 3.8 SW 15 26 8 14 1011.7 1011.5 0.0
31/05:30pm 18.6 16.3 10.4 59 4.4 SSW 13 22 7 12 1011.5 1011.3 0.0
31/05:00pm 18.3 15.6 10.2 59 4.3 SW 15 37 8 20 1011.6 1011.4 0.0
31/04:30pm 18.2 14.9 10.8 62 4.0 SW 19 32 10 17 1011.7 1011.5 0.0
31/04:00pm 18.2 15.4 11.3 64 3.8 SSW 17 28 9 15 1011.6 1011.4 0.0
31/03:30pm 18.2 14.7 10.3 60 4.2 SW 19 30 10 16 1011.6 1011.4 0.0
31/03:00pm 18.2 14.9 10.8 62 4.0 SSW 19 32 10 17 1011.5 1011.3 0.0
31/02:30pm 18.3 15.4 10.9 62 4.0 SSW 17 26 9 14 1011.5 1011.3 0.0
31/02:00pm 18.6 15.8 11.2 62 4.0 SSW 17 28 9 15 1011.5 1011.3 0.0
31/01:30pm 19.1 16.5 12.1 64 3.9 SW 17 28 9 15 1011.5 1011.3 0.0
31/01:00pm 19.0 15.8 11.8 63 4.0 SW 20 32 11 17 1011.5 1011.3 0.0
31/12:30pm 19.4 15.8 11.9 62 4.2 SW 22 32 12 17 1011.4 1011.2 0.0
31/12:00pm 19.1 17.2 11.9 63 4.0 SW 13 22 7 12 1011.6 1011.4 0.0
31/11:30am 19.7 17.6 12.5 63 4.1 WSW 15 22 8 12 1011.5 1011.3 0.0
31/11:00am 19.6 19.0 13.5 68 3.5 SW 9 15 5 8 1011.7 1011.5 0.0
31/10:30am 18.0 16.7 12.5 70 3.1 W 11 20 6 11 1011.8 1011.6 0.0
31/10:00am 16.7 16.0 12.0 74 2.6 WSW 7 13 4 7 1012.0 1011.8 0.0
31/09:30am 16.2 15.4 11.6 74 2.5 W 7 13 4 7 1012.0 1011.8 0.0
31/09:00am 15.6 15.2 11.2 75 2.4 N 4 9 2 5 1012.1 1011.9 0.0
31/08:30am 13.7 13.9 10.5 81 1.7 CALM 0 0 0 0 1012.3 1012.1 0.0
31/08:00am 11.9 11.9 9.8 87 1.1 CALM 0 0 0 0 1012.2 1012.0 0.0
31/07:30am 11.1 11.1 9.7 91 0.7 CALM 0 0 0 0 1012.2 1012.0 0.0
31/07:00am 10.7 10.8 10.1 96 0.3 CALM 0 0 0 0 1011.9 1011.7 0.0
31/06:30am 9.7 9.5 9.2 97 0.2 CALM 0 0 0 0 1011.7 1011.5 0.0
31/05:30am 7.2 6.3 6.1 93 0.5 CALM 0 0 0 0 1011.3 1011.1 0.0
31/05:00am 7.9 7.2 6.8 93 0.5 CALM 0 0 0 0 1011.3 1011.1 0.0
31/04:30am 8.7 8.1 7.3 91 0.7 CALM 0 0 0 0 1011.3 1011.1 0.0
31/04:00am 9.7 9.1 7.6 87 1.0 CALM 0 0 0 0 1011.5 1011.3 0.0
31/03:30am 11.4 11.1 8.6 83 1.4 CALM 0 0 0 0 1011.5 1011.3 0.0
31/03:00am 12.9 12.8 9.4 79 1.8 CALM 0 0 0 0 1011.6 1011.4 0.0
31/02:30am 12.7 12.7 9.7 82 1.5 CALM 0 0 0 0 1012.0 1011.8 0.0
31/02:00am 12.2 12.1 9.6 84 1.3 CALM 0 0 0 0 1012.5 1012.3 0.0
31/01:30am 12.1 12.1 9.7 85 1.2 CALM 0 0 0 0 1012.6 1012.4 0.0
31/01:00am 11.4 11.0 8.4 82 1.5 CALM 0 6 0 3 1012.8 1012.6 0.0
31/12:30am 12.5 11.0 8.6 77 1.9 SSW 6 7 3 4 1012.8 1012.6 0.0
 
Date/Time
EDT
Tmp

°C
App
Tmp
°C
Dew
Point
°C
Rel
Hum
%
Delta-T

°C
Wind Press
QNH
hPa
Press
MSL
hPa
Rain
since
9 am
mm
Dir
 
Spd
km/h
Gust
km/h
Spd
kts
Gust
kts
30/11:30pm 12.2 10.7 8.5 78 1.8 SSW 6 7 3 4 1013.2 1013.0 0.0
30/11:00pm 12.4 10.6 8.1 75 2.1 S 7 9 4 5 1013.3 1013.1 0.0
30/10:30pm 13.2 12.1 8.3 72 2.4 SSW 4 6 2 3 1013.3 1013.1 0.0
30/10:00pm 14.1 12.0 8.1 67 3.0 S 9 15 5 8 1013.4 1013.2 0.0
30/09:30pm 15.0 12.1 8.3 64 3.4 SSE 13 20 7 11 1013.3 1013.1 0.0
30/09:00pm 15.9 12.6 8.2 60 3.9 SSE 15 24 8 13 1013.1 1012.9 0.0
30/08:30pm 16.6 13.4 8.3 58 4.2 SSE 15 24 8 13 1012.9 1012.7 0.0
30/08:00pm 17.4 14.6 8.5 56 4.6 SSE 13 20 7 11 1013.0 1012.8 0.0
30/07:30pm 17.1 13.5 8.5 57 4.4 S 17 24 9 13 1013.1 1012.9 0.0
30/07:00pm 17.6 14.0 8.5 55 4.7 SSE 17 26 9 14 1012.9 1012.7 0.0
30/06:30pm 17.9 14.0 8.5 54 4.9 SSE 19 32 10 17 1012.9 1012.7 0.0
30/06:00pm 17.9 13.0 8.5 54 4.9 S 24 32 13 17 1013.0 1012.8 0.0
30/05:30pm 18.9 14.8 8.8 52 5.3 S 20 32 11 17 1013.1 1012.9 0.0
30/05:00pm 18.7 14.5 8.1 50 5.5 S 20 33 11 18 1013.3 1013.1 0.0
30/04:30pm 19.0 14.6 7.4 47 5.9 SSE 20 32 11 17 1013.4 1013.2 0.0
30/04:00pm 19.3 15.4 7.1 45 6.2 S 17 28 9 15 1013.5 1013.3 0.0
30/03:30pm 20.7 16.8 7.0 41 7.0 SSE 17 30 9 16 1013.5 1013.3 0.0
30/03:00pm 20.1 15.8 6.8 42 6.7 S 19 30 10 16 1013.9 1013.7 0.0
30/02:30pm 19.8 15.4 7.2 44 6.4 SSE 20 30 11 16 1014.4 1014.1 0.0
30/02:00pm 19.7 15.6 6.1 41 6.8 S 17 32 9 17 1014.5 1014.2 0.0
30/01:30pm 21.5 18.3 8.4 43 6.9 SSE 15 24 8 13 1014.7 1014.4 0.0
30/01:00pm 18.9 14.8 6.4 44 6.2 SSE 17 26 9 14 1015.0 1014.7 0.0
30/12:30pm 19.0 14.7 7.1 46 6.0 SSE 19 30 10 16 1015.4 1015.1 0.0
30/12:00pm 19.0 15.0 8.1 49 5.6 S 19 28 10 15 1015.6 1015.3 0.0
30/11:30am 19.3 14.5 7.4 46 6.1 SE 22 35 12 19 1015.8 1015.5 0.0
30/11:00am 17.7 13.5 7.4 51 5.2 SSE 19 30 10 16 1016.2 1015.9 0.0
30/10:30am 17.6 13.9 7.9 53 4.9 SE 17 24 9 13 1016.5 1016.2 0.0
30/10:00am 17.0 13.9 8.7 58 4.3 SSE 15 24 8 13 1016.6 1016.3 0.0
30/09:30am 16.0 13.9 9.7 66 3.3 SE 11 17 6 9 1016.5 1016.2 0.0
30/09:00am 14.7 12.5 9.5 71 2.7 SE 11 19 6 10 1016.7 1016.4 0.0
30/08:30am 14.2 11.8 10.0 76 2.2 SE 13 17 7 9 1016.5 1016.2 0.0
30/08:00am 12.9 10.6 10.3 84 1.3 SE 13 19 7 10 1016.3 1016.0 0.0
30/07:30am 12.4 8.8 10.0 85 1.2 SSE 19 28 10 15 1016.0 1015.7 0.0
30/07:00am 12.1 8.5 9.7 85 1.2 SSE 19 26 10 14 1015.8 1015.5 0.0
30/06:30am 12.0 9.1 9.6 85 1.2 SE 15 20 8 11 1015.6 1015.3 0.0
30/06:00am 12.1 9.5 9.5 84 1.3 SSE 13 19 7 10 1015.8 1015.5 0.0
30/05:30am 11.5 9.8 9.9 90 0.8 SE 9 11 5 6 1015.9 1015.6 0.0
30/05:00am 11.2 10.3 9.3 88 1.0 S 4 9 2 5 1015.7 1015.4 0.0
30/04:30am 10.0 9.1 9.2 95 0.4 S 4 7 2 4 1015.9 1015.6 0.0
30/04:00am 8.7 8.1 7.3 91 0.7 CALM 0 0 0 0 1016.0 1015.7 0.0
30/03:30am 9.5 8.1 7.3 86 1.0 SSE 4 9 2 5 1016.1 1015.8 0.0
30/03:00am 10.2 9.1 8.6 90 0.8 S 4 7 2 4 1016.4 1016.1 0.0
30/02:30am 9.6 9.0 7.4 86 1.0 CALM 0 4 0 2 1016.6 1016.3 0.0
30/02:00am 11.5 9.8 8.5 82 1.5 SW 7 11 4 6 1016.8 1016.5 0.0
30/01:30am 11.6 9.6 8.6 82 1.5 S 9 13 5 7 1017.0 1016.7 0.0
30/01:00am 11.9 9.9 8.7 81 1.6 S 9 13 5 7 1017.4 1017.1 0.0
30/12:30am 12.1 10.7 8.9 81 1.6 SSW 6 9 3 5 1017.7 1017.4 0.0
30/12:00am 12.8 10.9 8.9 77 2.0 S 9 13 5 7 1017.9 1017.6 0.0
 
Date/Time
EDT
Tmp

°C
App
Tmp
°C
Dew
Point
°C
Rel
Hum
%
Delta-T

°C
Wind Press
QNH
hPa
Press
MSL
hPa
Rain
since
9 am
mm
Dir
 
Spd
km/h
Gust
km/h
Spd
kts
Gust
kts
29/11:30pm 13.4 11.5 9.1 75 2.2 S 9 15 5 8 1017.9 1017.6 0.0
29/11:00pm 13.4 11.6 9.3 76 2.1 SE 9 17 5 9 1017.9 1017.6 0.0
29/10:30pm 13.5 11.6 9.2 75 2.2 SE 9 13 5 7 1018.0 1017.7 0.0
29/10:00pm 14.4 13.1 9.8 74 2.4 SSE 7 13 4 7 1018.3 1018.0 0.0
29/09:30pm 15.0 13.2 9.6 70 2.8 SSE 9 13 5 7 1018.0 1017.7 0.0
29/09:00pm 15.4 13.2 9.5 68 3.1 SE 11 17 6 9 1017.9 1017.6 0.0
29/08:30pm 15.6 13.4 9.5 67 3.2 SSE 11 15 6 8 1017.7 1017.4 0.0
29/08:00pm 16.4 13.2 9.8 65 3.5 SSE 17 28 9 15 1017.5 1017.2 0.0
29/07:30pm 16.9 13.1 9.8 63 3.7 SE 20 33 11 18 1017.3 1017.0 0.0
29/07:00pm 18.2 12.5 9.8 58 4.5 SE 30 43 16 23 1017.0 1016.7 0.0
29/06:30pm 19.3 14.2 9.2 52 5.3 SE 26 41 14 22 1016.6 1016.3 0.0
29/06:00pm 20.2 14.2 8.5 47 6.1 SE 30 43 16 23 1016.5 1016.2 0.0
29/05:30pm 21.5 16.5 8.1 42 7.0 SSE 24 37 13 20 1016.5 1016.2 0.0
29/05:00pm 20.3 15.0 8.6 47 6.1 SSE 26 37 14 20 1017.0 1016.7 0.0
29/04:30pm 21.2 15.6 7.1 40 7.2 SSE 26 39 14 21 1017.3 1017.0 0.0
29/04:00pm 22.5 17.4 7.5 38 7.8 SSE 24 39 13 21 1017.4 1017.1 0.0
29/03:30pm 21.9 17.3 8.1 41 7.3 SSE 22 35 12 19 1017.5 1017.2 0.0
29/03:00pm 22.0 17.4 8.2 41 7.3 SSE 22 41 12 22 1017.6 1017.3 0.0
29/02:30pm 23.1 18.8 8.0 38 8.0 SSE 20 35 11 19 1018.1 1017.8 0.0
29/02:00pm 21.0 16.2 7.3 41 7.0 SSE 22 32 12 17 1018.2 1017.9 0.0
29/01:30pm 22.0 17.5 6.3 36 8.0 SSE 19 30 10 16 1018.4 1018.1 0.0
29/01:00pm 20.6 16.3 7.9 44 6.6 SSE 20 35 11 19 1019.0 1018.8 0.0
29/12:30pm 21.3 17.0 7.9 42 7.0 SSE 20 33 11 18 1019.3 1019.1 0.0
29/12:00pm 20.3 15.8 6.3 40 7.0 SSE 19 32 10 17 1019.4 1019.2 0.0
29/11:30am 20.5 15.9 6.4 40 7.1 SSE 20 35 11 19 1019.9 1019.7 0.0
29/11:00am 19.8 15.0 7.5 45 6.3 SE 22 33 12 18 1020.1 1019.9 0.0
29/10:30am 19.1 14.6 8.4 50 5.6 SSE 22 32 12 17 1020.1 1019.9 0.0
29/10:00am 18.1 13.9 8.4 53 5.0 SE 20 35 11 19 1020.1 1019.9 0.0
29/09:30am 16.6 13.3 8.1 57 4.3 SE 15 26 8 14 1020.4 1020.2 0.0
29/09:00am 16.7 12.7 9.1 61 3.9 SE 20 32 11 17 1020.4 1020.2 0.0
29/08:30am 15.6 12.3 9.5 67 3.2 SE 17 26 9 14 1020.2 1020.0 0.0
29/08:00am 14.5 11.6 9.7 73 2.5 ESE 15 20 8 11 1020.1 1019.9 0.0
29/07:30am 13.0 11.5 9.3 78 1.9 SE 7 19 4 10 1019.9 1019.7 0.0
29/07:00am 11.5 9.2 8.9 84 1.3 SE 11 15 6 8 1019.6 1019.4 0.0
29/06:30am 10.9 8.8 8.1 83 1.4 SE 9 13 5 7 1019.4 1019.2 0.0
29/06:00am 11.5 9.4 8.2 80 1.6 SSE 9 13 5 7 1019.1 1018.9 0.0
29/05:30am 12.1 10.1 8.6 79 1.7 SSE 9 17 5 9 1018.7 1018.4 0.0
29/05:00am 11.6 10.0 8.6 82 1.5 S 7 13 4 7 1018.6 1018.3 0.0
29/04:30am 10.1 9.5 7.2 82 1.4 CALM 0 2 0 1 1018.6 1018.3 0.0
29/04:00am 12.2 10.7 8.5 78 1.8 SSE 6 9 3 5 1018.6 1018.3 0.0
29/03:30am 12.2 10.4 8.1 76 2.0 S 7 11 4 6 1018.7 1018.4 0.0
29/03:00am 13.2 10.7 8.1 71 2.5 SSE 11 17 6 9 1018.8 1018.5 0.0
29/02:30am 13.3 10.0 8.0 70 2.6 SE 15 22 8 12 1019.0 1018.8 0.0
29/02:00am 13.1 10.6 8.0 71 2.5 SE 11 17 6 9 1019.2 1019.0 0.0
29/01:30am 13.5 10.7 8.4 71 2.6 SE 13 22 7 12 1019.2 1019.0 0.0
29/01:00am 14.3 10.1 8.3 67 3.0 SE 20 28 11 15 1019.3 1019.1 0.0
29/12:30am 14.4 10.4 8.1 66 3.2 SE 19 32 10 17 1019.3 1019.1 0.0
29/12:00am 14.8 10.8 8.1 64 3.4 SE 19 32 10 17 1019.3 1019.1 0.0
 
Date/Time
EDT
Tmp

°C
App
Tmp
°C
Dew
Point
°C
Rel
Hum
%
Delta-T

°C
Wind Press
QNH
hPa
Press
MSL
hPa
Rain
since
9 am
mm
Dir
 
Spd
km/h
Gust
km/h
Spd
kts
Gust
kts
28/11:30pm 15.3 10.2 7.8 61 3.8 SE 24 39 13 21 1019.4 1019.2 0.0
28/11:00pm 15.6 10.6 7.9 60 3.9 SE 24 35 13 19 1019.3 1019.1 0.0
28/10:30pm 16.2 11.2 7.9 58 4.2 SE 24 39 13 21 1019.2 1019.0 0.0
28/10:00pm 16.1 12.3 7.6 57 4.3 SE 17 30 9 16 1019.1 1018.9 0.0
28/09:30pm 17.3 13.1 7.4 52 5.0 SE 19 32 10 17 1018.8 1018.5 0.0

Latest Capital City Observations: Canberra | Sydney | Melbourne | Brisbane | Adelaide | Perth | Hobart | Darwin

Other Formats:

Comma delimited format used in spreadsheet applications
http://www.bom.gov.au/fwo/IDV60901/IDV60901.94864.axf

JavaScript Object Notation format (JSON) in row-major order
http://www.bom.gov.au/fwo/IDV60901/IDV60901.94864.json